createdAt,value
2023-03-12T00:00:57.765Z,1.51
2023-03-12T00:03:28.704Z,1.51
2023-03-12T00:06:09.830Z,1.48
2023-03-12T00:08:41.744Z,1.44
2023-03-12T00:11:15.035Z,1.43
2023-03-12T00:13:49.858Z,1.42
2023-03-12T00:16:21.517Z,1.40
2023-03-12T00:18:56.564Z,1.40
2023-03-12T00:21:28.203Z,1.40
2023-03-12T00:23:59.087Z,1.38
2023-03-12T00:26:30.074Z,1.36
2023-03-12T00:29:01.088Z,1.33
2023-03-12T00:31:33.904Z,1.30
2023-03-12T00:34:05.281Z,1.26
2023-03-12T00:36:36.627Z,1.22
2023-03-12T00:39:08.210Z,1.20
2023-03-12T00:41:39.250Z,1.20
2023-03-12T00:44:10.278Z,1.21
2023-03-12T00:46:41.226Z,1.23
2023-03-12T00:49:12.486Z,1.23
2023-03-12T00:51:43.604Z,1.24
2023-03-12T00:54:14.453Z,1.23
2023-03-12T00:56:46.874Z,1.23
2023-03-12T00:59:18.317Z,1.22
2023-03-12T01:01:50.500Z,1.23
2023-03-12T01:04:21.630Z,1.24
2023-03-12T01:06:52.551Z,1.23
2023-03-12T01:09:23.455Z,1.25
2023-03-12T01:11:55.883Z,1.27
2023-03-12T01:14:27.709Z,1.27
2023-03-12T01:16:59.068Z,1.28
2023-03-12T01:19:30.394Z,1.32
2023-03-12T01:22:01.342Z,1.35
2023-03-12T01:24:33.410Z,1.38
2023-03-12T01:27:04.422Z,1.38
2023-03-12T01:29:35.632Z,1.38
2023-03-12T01:32:07.882Z,1.37
2023-03-12T01:34:38.856Z,1.37
2023-03-12T01:37:11.474Z,1.41
2023-03-12T01:39:42.898Z,1.41
2023-03-12T01:42:15.216Z,1.41
2023-03-12T01:44:54.881Z,1.40
2023-03-12T01:47:26.733Z,1.41
2023-03-12T01:49:59.181Z,1.42
2023-03-12T01:52:33.512Z,1.45
2023-03-12T01:55:10.494Z,1.49
2023-03-12T01:57:48.806Z,1.52
2023-03-12T02:00:25.173Z,1.56
2023-03-12T02:03:00.015Z,1.61
2023-03-12T02:05:43.764Z,1.63
2023-03-12T02:08:16.724Z,1.65
2023-03-12T02:10:48.652Z,1.67
2023-03-12T02:13:19.981Z,1.69
2023-03-12T02:15:51.395Z,1.70
2023-03-12T02:18:22.900Z,1.70
2023-03-12T02:21:03.623Z,1.72
2023-03-12T02:23:39.641Z,1.73
2023-03-12T02:26:13.268Z,1.71
2023-03-12T02:28:46.705Z,1.70
2023-03-12T02:31:21.915Z,1.69
2023-03-12T02:33:53.053Z,1.69
2023-03-12T02:36:24.255Z,1.70
2023-03-12T02:38:56.947Z,1.70
2023-03-12T02:41:30.475Z,1.68
2023-03-12T02:44:05.758Z,1.65
2023-03-12T02:46:40.768Z,1.64
2023-03-12T02:49:13.422Z,1.61
2023-03-12T02:51:45.717Z,1.59
2023-03-12T02:54:18.236Z,1.59
2023-03-12T02:56:50.063Z,1.56
2023-03-12T02:59:22.982Z,1.54
2023-03-12T03:01:57.868Z,1.51
2023-03-12T03:04:29.916Z,1.54
2023-03-12T03:07:01.173Z,1.54
2023-03-12T03:09:32.305Z,1.53
2023-03-12T03:12:03.607Z,1.56
2023-03-12T03:14:35.504Z,1.60
2023-03-12T03:17:06.600Z,1.63
2023-03-12T03:19:37.446Z,1.66
2023-03-12T03:22:09.240Z,1.68
2023-03-12T03:24:40.271Z,1.69
2023-03-12T03:27:11.258Z,1.70
2023-03-12T03:29:42.370Z,1.72
2023-03-12T03:32:13.319Z,1.76
2023-03-12T03:34:44.541Z,1.77
2023-03-12T03:37:15.808Z,1.78
2023-03-12T03:39:47.246Z,1.79
2023-03-12T03:42:18.475Z,1.79
2023-03-12T03:44:49.724Z,1.78
2023-03-12T03:47:21.525Z,1.80
2023-03-12T03:49:52.514Z,1.81
2023-03-12T03:52:23.573Z,1.81
2023-03-12T03:54:54.732Z,1.79
2023-03-12T03:57:25.978Z,1.77
2023-03-12T04:00:00.917Z,1.77
2023-03-12T04:02:33.664Z,1.78
2023-03-12T04:05:05.193Z,1.79
2023-03-12T04:07:36.146Z,1.80
2023-03-12T04:10:08.449Z,1.82
2023-03-12T04:12:39.519Z,1.85
2023-03-12T04:15:11.441Z,1.86
2023-03-12T04:17:42.923Z,1.87
2023-03-12T04:20:15.840Z,1.89
2023-03-12T04:22:46.948Z,1.91
2023-03-12T04:25:18.521Z,1.95
2023-03-12T04:27:49.363Z,1.96
2023-03-12T04:30:20.770Z,2.00
2023-03-12T04:32:52.861Z,2.02
2023-03-12T04:35:26.525Z,2.06
2023-03-12T04:37:57.483Z,2.09
2023-03-12T04:40:29.035Z,2.12
2023-03-12T04:43:00.236Z,2.16
2023-03-12T04:45:33.189Z,2.19
2023-03-12T04:48:05.014Z,2.22
2023-03-12T04:50:36.903Z,2.26
2023-03-12T04:53:08.048Z,2.29
2023-03-12T04:55:39.192Z,2.33
2023-03-12T04:58:10.166Z,2.35
2023-03-12T05:00:43.665Z,2.36
2023-03-12T05:03:15.071Z,2.36
2023-03-12T05:05:46.846Z,2.37
2023-03-12T05:08:18.371Z,2.37
2023-03-12T05:10:49.597Z,2.40
2023-03-12T05:13:23.600Z,2.39
2023-03-12T05:15:59.159Z,2.37
2023-03-12T05:18:30.695Z,2.34
2023-03-12T05:21:03.675Z,2.31
2023-03-12T05:23:35.402Z,2.29
2023-03-12T05:26:06.641Z,2.29
2023-03-12T05:28:38.329Z,2.28
2023-03-12T05:31:13.022Z,2.30
2023-03-12T05:33:44.506Z,2.31
2023-03-12T05:36:17.968Z,2.31
2023-03-12T05:38:49.677Z,2.33
2023-03-12T05:41:24.549Z,2.35
2023-03-12T05:43:58.281Z,2.39
2023-03-12T05:46:30.144Z,2.41
2023-03-12T05:49:02.085Z,2.42
2023-03-12T05:51:35.853Z,2.41
2023-03-12T05:54:06.887Z,2.43
2023-03-12T05:56:38.649Z,2.46
2023-03-12T05:59:10.824Z,2.48
2023-03-12T06:01:43.020Z,2.52
2023-03-12T06:04:14.042Z,2.55
2023-03-12T06:06:45.011Z,2.56
2023-03-12T06:09:15.993Z,2.58
2023-03-12T06:11:46.998Z,2.61
2023-03-12T06:14:18.147Z,2.64
2023-03-12T06:16:49.365Z,2.65
2023-03-12T06:19:20.492Z,2.68
2023-03-12T06:21:53.602Z,2.69
2023-03-12T06:24:24.720Z,2.69
2023-03-12T06:27:03.089Z,2.74
2023-03-12T06:29:33.975Z,2.88
2023-03-12T06:32:05.197Z,3.05
2023-03-12T06:34:36.234Z,3.15
2023-03-12T06:37:07.362Z,3.21
2023-03-12T06:39:38.776Z,3.25
2023-03-12T06:42:11.084Z,3.27
2023-03-12T06:44:42.016Z,3.28
2023-03-12T06:47:13.057Z,3.30
2023-03-12T06:49:44.033Z,3.31
2023-03-12T06:52:15.078Z,3.31
2023-03-12T06:54:46.191Z,3.31
2023-03-12T06:57:17.993Z,3.35
2023-03-12T06:59:50.657Z,3.35
2023-03-12T07:02:21.747Z,3.34
2023-03-12T07:04:53.050Z,3.35
2023-03-12T07:07:24.252Z,3.40
2023-03-12T07:09:55.145Z,3.47
2023-03-12T07:12:26.213Z,3.88
2023-03-12T07:14:57.118Z,4.14
2023-03-12T07:17:28.208Z,4.75
2023-03-12T07:19:59.771Z,6.47
2023-03-12T07:22:30.812Z,8.14
2023-03-12T07:25:01.844Z,8.94
2023-03-12T07:27:33.071Z,8.93
2023-03-12T07:30:03.998Z,9.24
2023-03-12T07:32:36.832Z,10.06
2023-03-12T07:35:08.910Z,10.95
2023-03-12T07:37:40.139Z,11.41
2023-03-12T07:40:13.382Z,11.37
2023-03-12T07:42:44.307Z,11.27
2023-03-12T07:45:18.344Z,11.92
2023-03-12T07:47:50.153Z,12.62
2023-03-12T07:50:22.056Z,12.67
2023-03-12T07:52:52.993Z,12.63
2023-03-12T07:55:24.324Z,12.27
2023-03-12T07:57:58.587Z,11.90
2023-03-12T08:00:31.090Z,12.30
2023-03-12T08:03:02.375Z,12.37
2023-03-12T08:05:34.071Z,12.02
2023-03-12T08:08:05.132Z,11.54
2023-03-12T08:10:37.251Z,10.98
2023-03-12T08:13:08.458Z,10.50
2023-03-12T08:15:39.372Z,10.09
2023-03-12T08:18:10.518Z,9.71
2023-03-12T08:20:41.484Z,9.35
2023-03-12T08:23:12.599Z,8.94
2023-03-12T08:25:47.911Z,8.46
2023-03-12T08:28:20.689Z,7.95
2023-03-12T08:30:53.256Z,7.59
2023-03-12T08:33:28.048Z,7.32
2023-03-12T08:35:59.092Z,7.27
2023-03-12T08:38:30.064Z,7.30
2023-03-12T08:41:02.332Z,7.59
2023-03-12T08:43:33.427Z,8.21
2023-03-12T08:46:06.159Z,8.78
2023-03-12T08:48:37.479Z,9.25
2023-03-12T08:51:09.369Z,9.47
2023-03-12T08:53:40.525Z,9.47
2023-03-12T08:56:12.100Z,9.34
2023-03-12T08:58:43.598Z,9.43
2023-03-12T09:01:15.303Z,9.26
2023-03-12T09:03:47.610Z,9.07
2023-03-12T09:06:19.579Z,9.12
2023-03-12T09:08:54.428Z,9.27
2023-03-12T09:11:25.689Z,9.27
2023-03-12T09:14:33.562Z,9.30
2023-03-12T09:16:47.966Z,9.32
2023-03-12T09:19:19.173Z,9.23
2023-03-12T09:21:50.244Z,9.08
2023-03-12T09:24:21.637Z,8.92
2023-03-12T09:26:52.844Z,8.73
2023-03-12T09:29:24.844Z,8.52
2023-03-12T09:31:55.996Z,8.42
2023-03-12T09:34:27.216Z,8.39
2023-03-12T09:36:58.490Z,8.40
2023-03-12T09:39:29.803Z,8.50
2023-03-12T09:42:00.958Z,8.50
2023-03-12T09:44:39.335Z,8.52
2023-03-12T09:47:19.045Z,8.50
2023-03-12T09:49:55.069Z,8.41
2023-03-12T09:52:35.080Z,8.30
2023-03-12T09:55:15.082Z,8.19
2023-03-12T09:57:47.464Z,8.06
2023-03-12T10:00:29.805Z,7.91
2023-03-12T10:03:24.018Z,7.75
2023-03-12T10:06:10.249Z,7.57
2023-03-12T10:09:02.077Z,7.40
2023-03-12T10:11:43.252Z,7.25
2023-03-12T10:14:38.230Z,7.11
2023-03-12T10:17:31.495Z,6.97
2023-03-12T10:20:22.111Z,6.85
2023-03-12T10:23:01.704Z,6.80
2023-03-12T10:25:42.447Z,6.78
2023-03-12T10:28:19.836Z,6.73
2023-03-12T10:30:56.078Z,6.62
2023-03-12T10:33:39.980Z,6.54
2023-03-12T10:36:18.612Z,6.49
2023-03-12T10:38:50.860Z,6.49
2023-03-12T10:41:25.359Z,6.52
2023-03-12T10:43:58.350Z,6.60
2023-03-12T10:46:46.994Z,6.72
2023-03-12T10:49:31.360Z,6.78
2023-03-12T10:52:06.244Z,6.79
2023-03-12T10:54:44.836Z,6.81
2023-03-12T10:57:17.106Z,6.76
2023-03-12T10:59:51.875Z,6.80
2023-03-12T11:02:38.772Z,6.81
2023-03-12T11:05:24.837Z,6.83
2023-03-12T11:07:57.130Z,7.03
2023-03-12T11:10:47.237Z,7.28
2023-03-12T11:13:31.275Z,7.59
2023-03-12T11:16:04.652Z,7.83
2023-03-12T11:18:40.566Z,8.06
2023-03-12T11:21:22.813Z,8.26
2023-03-12T11:24:14.456Z,8.47
2023-03-12T11:26:58.828Z,8.67
2023-03-12T11:29:36.640Z,8.77
2023-03-12T11:32:17.706Z,8.89
2023-03-12T11:34:50.470Z,8.97
2023-03-12T11:37:32.949Z,9.02
2023-03-12T11:40:18.150Z,9.04
2023-03-12T11:43:05.445Z,9.07
2023-03-12T11:45:49.217Z,9.09
2023-03-12T11:48:32.840Z,9.03
2023-03-12T11:51:17.377Z,8.91
2023-03-12T11:54:07.930Z,8.81
2023-03-12T11:56:45.919Z,8.80
2023-03-12T11:59:32.289Z,8.85
2023-03-12T12:02:18.908Z,8.93
2023-03-12T12:08:22.206Z,9.10
2023-03-12T12:11:02.476Z,9.13
2023-03-12T12:13:44.202Z,9.15
2023-03-12T12:16:36.076Z,9.16
2023-03-12T12:19:20.346Z,9.18
2023-03-12T12:22:10.948Z,9.15
2023-03-12T12:25:13.814Z,9.06
2023-03-12T12:27:51.562Z,9.00
2023-03-12T12:30:29.925Z,8.99
2023-03-12T12:33:22.845Z,8.97
2023-03-12T12:35:54.176Z,8.87
2023-03-12T12:38:34.327Z,8.77
2023-03-12T12:41:12.672Z,8.65
2023-03-12T12:43:48.411Z,8.51
2023-03-12T12:46:22.283Z,8.38
2023-03-12T12:48:57.016Z,8.22
2023-03-12T12:51:31.507Z,8.07
2023-03-12T12:54:09.872Z,8.02
2023-03-12T12:56:50.066Z,8.03
2023-03-12T12:59:33.344Z,7.99
2023-03-12T13:02:13.739Z,7.88
2023-03-12T13:04:45.763Z,7.78
2023-03-12T13:07:37.952Z,7.68
2023-03-12T13:10:48.955Z,7.59
2023-03-12T13:13:30.054Z,7.45
2023-03-12T13:16:29.353Z,7.39
2023-03-12T13:19:02.620Z,7.31
2023-03-12T13:21:41.838Z,7.26
2023-03-12T13:24:23.908Z,7.23
2023-03-12T13:27:05.842Z,7.24
2023-03-12T13:29:43.268Z,7.24
2023-03-12T13:33:02.037Z,7.22
2023-03-12T13:35:37.345Z,7.23
2023-03-12T13:38:19.050Z,7.23
2023-03-12T13:41:02.439Z,7.23
2023-03-12T13:43:56.612Z,7.21
2023-03-12T13:46:43.032Z,7.17
2023-03-12T13:49:21.083Z,7.09
2023-03-12T13:52:23.501Z,7.01
2023-03-12T13:55:03.025Z,6.95
2023-03-12T13:57:41.242Z,6.94
2023-03-12T14:00:22.091Z,6.94
2023-03-12T14:03:00.974Z,6.98
2023-03-12T14:05:36.229Z,7.04
2023-03-12T14:08:41.004Z,7.06
2023-03-12T14:11:28.763Z,7.05
2023-03-12T14:14:34.936Z,7.04
2023-03-12T14:17:05.878Z,7.05
2023-03-12T14:19:37.852Z,7.05
2023-03-12T14:22:13.680Z,7.05
2023-03-12T14:24:54.373Z,7.01
2023-03-12T14:27:30.804Z,6.92
2023-03-12T14:30:11.539Z,6.87
2023-03-12T14:32:45.250Z,6.82
2023-03-12T14:35:23.371Z,6.78
2023-03-12T14:38:00.952Z,6.74
2023-03-12T14:40:41.130Z,6.74
2023-03-12T14:43:27.154Z,6.73
2023-03-12T14:46:00.355Z,6.73
2023-03-12T14:48:33.808Z,6.70
2023-03-12T14:51:06.587Z,6.62
2023-03-12T14:53:39.768Z,6.52
2023-03-12T14:56:16.882Z,6.40
2023-03-12T14:58:50.034Z,6.30
2023-03-12T15:01:24.421Z,6.21
2023-03-12T15:03:58.483Z,6.11
2023-03-12T15:06:33.855Z,6.00
2023-03-12T15:09:06.744Z,5.91
2023-03-12T15:11:38.786Z,5.83
2023-03-12T15:14:14.921Z,5.75
2023-03-12T15:16:46.644Z,5.65
2023-03-12T15:19:21.828Z,5.54
2023-03-12T15:21:51.393Z,5.45
2023-03-12T15:24:22.677Z,5.36
2023-03-12T15:26:53.364Z,5.31
2023-03-12T15:29:27.973Z,5.26
2023-03-12T15:32:00.836Z,5.22
2023-03-12T15:34:35.323Z,5.19
2023-03-12T15:37:28.781Z,5.16
2023-03-12T15:40:00.537Z,5.13
2023-03-12T15:42:37.987Z,5.11
2023-03-12T15:45:20.700Z,5.10
2023-03-12T15:47:53.259Z,5.10
2023-03-12T15:50:28.297Z,5.07
2023-03-12T15:53:25.612Z,5.06
2023-03-12T15:56:04.759Z,5.04
2023-03-12T15:58:37.164Z,5.01
2023-03-12T16:01:13.586Z,5.01
2023-03-12T16:03:46.530Z,5.01
2023-03-12T16:06:20.119Z,5.01
2023-03-12T16:08:54.712Z,5.00
2023-03-12T16:11:27.756Z,4.99
2023-03-12T16:14:04.138Z,4.98
2023-03-12T16:16:35.623Z,4.98
2023-03-12T16:19:10.883Z,4.96
2023-03-12T16:21:42.137Z,4.95
2023-03-12T16:24:13.482Z,4.93
2023-03-12T16:26:50.936Z,4.91
2023-03-12T16:29:23.242Z,4.89
2023-03-12T16:31:56.775Z,4.86
2023-03-12T16:34:28.067Z,4.83
2023-03-12T16:36:59.281Z,4.81
2023-03-12T16:39:33.264Z,4.79
2023-03-12T16:42:06.991Z,4.76
2023-03-12T16:44:38.019Z,4.74
2023-03-12T16:47:13.374Z,4.71
2023-03-12T16:49:46.163Z,4.68
2023-03-12T16:52:22.435Z,4.64
2023-03-12T16:54:54.261Z,4.59
2023-03-12T16:57:33.184Z,4.55
2023-03-12T17:00:08.020Z,4.50
2023-03-12T17:02:39.758Z,4.45
2023-03-12T17:05:12.666Z,4.41
2023-03-12T17:07:44.098Z,4.38
2023-03-12T17:10:17.861Z,4.32
2023-03-12T17:12:49.265Z,4.28
2023-03-12T17:15:23.730Z,4.24
2023-03-12T17:17:56.806Z,4.20
2023-03-12T17:20:29.022Z,4.17
2023-03-12T17:23:00.220Z,4.14
2023-03-12T17:25:33.262Z,4.11
2023-03-12T17:28:04.798Z,4.07
2023-03-12T17:30:36.869Z,4.05
2023-03-12T17:33:11.214Z,4.04
2023-03-12T17:35:43.606Z,4.03
2023-03-12T17:38:15.323Z,4.00
2023-03-12T17:40:46.548Z,3.97
2023-03-12T17:43:17.517Z,3.96
2023-03-12T17:45:48.422Z,3.95
2023-03-12T17:48:20.165Z,3.93
2023-03-12T17:50:51.254Z,3.92
2023-03-12T17:53:22.337Z,3.91
2023-03-12T17:55:53.171Z,3.90
2023-03-12T17:58:24.577Z,3.90
2023-03-12T18:00:55.505Z,3.88
2023-03-12T18:03:27.369Z,3.86
2023-03-12T18:05:58.318Z,3.83
2023-03-12T18:08:29.487Z,3.82
2023-03-12T18:11:01.750Z,3.80
2023-03-12T18:13:32.805Z,3.79
2023-03-12T18:16:03.639Z,3.76
2023-03-12T18:18:34.461Z,3.74
2023-03-12T18:21:05.570Z,3.73
2023-03-12T18:23:36.453Z,3.71
2023-03-12T18:26:09.086Z,3.67
2023-03-12T18:28:40.657Z,3.63
2023-03-12T18:31:12.910Z,3.58
2023-03-12T18:33:44.635Z,3.54
2023-03-12T18:36:15.546Z,3.51
2023-03-12T18:38:46.830Z,3.48
2023-03-12T18:41:18.614Z,3.45
2023-03-12T18:43:50.328Z,3.42
2023-03-12T18:46:23.921Z,3.41
2023-03-12T18:48:55.905Z,3.39
2023-03-12T18:51:26.756Z,3.37
2023-03-12T18:53:58.597Z,3.36
2023-03-12T18:56:32.182Z,3.33
2023-03-12T18:59:04.807Z,3.32
2023-03-12T19:01:36.108Z,3.28
2023-03-12T19:04:07.399Z,3.26
2023-03-12T19:06:50.314Z,3.25
2023-03-12T19:09:22.604Z,3.26
2023-03-12T19:11:53.768Z,3.25
2023-03-12T19:14:26.373Z,3.24
2023-03-12T19:16:57.418Z,3.23
2023-03-12T19:19:28.648Z,3.23
2023-03-12T19:21:59.530Z,3.24
2023-03-12T19:24:30.490Z,3.24
2023-03-12T19:27:01.359Z,3.23
2023-03-12T19:29:32.387Z,3.25
2023-03-12T19:32:03.157Z,3.25
2023-03-12T19:34:34.089Z,3.27
2023-03-12T19:37:04.844Z,3.27
2023-03-12T19:39:35.657Z,3.29
2023-03-12T19:42:06.572Z,3.29
2023-03-12T19:44:39.141Z,3.28
2023-03-12T19:47:09.969Z,3.27
2023-03-12T19:49:41.067Z,3.26
2023-03-12T19:52:12.038Z,3.25
2023-03-12T19:54:49.095Z,3.25
2023-03-12T19:57:25.797Z,3.24
2023-03-12T19:59:56.727Z,3.24
2023-03-12T20:02:27.634Z,3.25
2023-03-12T20:04:58.516Z,3.26
2023-03-12T20:07:29.503Z,3.25
2023-03-12T20:10:00.745Z,3.25
2023-03-12T20:12:31.525Z,3.24
2023-03-12T20:15:02.371Z,3.25
2023-03-12T20:17:33.152Z,3.24
2023-03-12T20:20:05.891Z,3.23
2023-03-12T20:22:37.120Z,3.22
2023-03-12T20:25:10.458Z,3.20
2023-03-12T20:27:41.370Z,3.17
2023-03-12T20:30:14.890Z,3.14
2023-03-12T20:32:45.775Z,3.11
2023-03-12T20:35:16.663Z,3.08
2023-03-12T20:37:47.443Z,3.05
2023-03-12T20:40:18.805Z,3.03
2023-03-12T20:42:49.577Z,3.00
2023-03-12T20:45:20.874Z,2.99
2023-03-12T20:47:51.800Z,2.97
2023-03-12T20:50:22.599Z,2.96
2023-03-12T20:52:53.394Z,2.96
2023-03-12T20:55:24.446Z,2.96
2023-03-12T20:57:55.292Z,2.96
2023-03-12T21:00:26.689Z,2.95
2023-03-12T21:02:57.518Z,2.95
2023-03-12T21:05:29.222Z,2.94
2023-03-12T21:08:00.758Z,2.93
2023-03-12T21:10:31.872Z,2.93
2023-03-12T21:13:02.862Z,2.92
2023-03-12T21:15:33.774Z,2.91
2023-03-12T21:18:04.869Z,2.88
2023-03-12T21:20:37.619Z,2.86
2023-03-12T21:23:08.910Z,2.84
2023-03-12T21:25:41.653Z,2.82
2023-03-12T21:28:13.338Z,2.81
2023-03-12T21:30:44.206Z,2.79
2023-03-12T21:33:15.146Z,2.77
2023-03-12T21:35:48.002Z,2.76
2023-03-12T21:38:18.850Z,2.73
2023-03-12T21:40:49.768Z,2.71
2023-03-12T21:43:20.831Z,2.71
2023-03-12T21:45:51.934Z,2.70
2023-03-12T21:48:22.779Z,2.68
2023-03-12T21:50:53.944Z,2.67
2023-03-12T21:53:29.393Z,2.64
2023-03-12T21:56:02.147Z,2.63
2023-03-12T21:58:34.525Z,2.61
2023-03-12T22:01:11.508Z,2.60
2023-03-12T22:03:44.665Z,2.61
2023-03-12T22:06:16.859Z,2.61
2023-03-12T22:08:49.258Z,2.61
2023-03-12T22:11:20.051Z,2.61
2023-03-12T22:13:50.753Z,2.60
2023-03-12T22:16:21.544Z,2.57
2023-03-12T22:18:54.519Z,2.54
2023-03-12T22:21:26.224Z,2.51
2023-03-12T22:23:58.270Z,2.51
2023-03-12T22:26:29.490Z,2.52
2023-03-12T22:29:01.390Z,2.52
2023-03-12T22:31:32.738Z,2.53
2023-03-12T22:34:03.969Z,2.53
2023-03-12T22:36:34.793Z,2.54
2023-03-12T22:39:07.815Z,2.54
2023-03-12T22:41:38.691Z,2.54
2023-03-12T22:44:11.229Z,2.56
2023-03-12T22:46:42.083Z,2.55
2023-03-12T22:49:12.996Z,2.53
2023-03-12T22:51:44.086Z,2.50
2023-03-12T22:54:14.860Z,2.48
2023-03-12T22:56:45.577Z,2.46
2023-03-12T22:59:16.313Z,2.42
2023-03-12T23:01:47.111Z,2.41
2023-03-12T23:04:17.863Z,2.42
2023-03-12T23:06:48.694Z,2.42
2023-03-12T23:09:19.532Z,2.43
2023-03-12T23:11:50.188Z,2.42
2023-03-12T23:14:20.939Z,2.44
2023-03-12T23:16:51.637Z,2.44
2023-03-12T23:19:22.368Z,2.45
2023-03-12T23:21:56.455Z,2.47
2023-03-12T23:24:30.345Z,2.49
2023-03-12T23:27:14.583Z,2.49
2023-03-12T23:29:45.350Z,2.50
2023-03-12T23:32:30.830Z,2.52
2023-03-12T23:35:21.309Z,2.53
2023-03-12T23:37:53.348Z,2.53
2023-03-12T23:40:24.200Z,2.51
2023-03-12T23:42:54.910Z,2.53
2023-03-12T23:45:25.795Z,2.54
2023-03-12T23:47:56.566Z,2.56
2023-03-12T23:50:28.961Z,2.58
2023-03-12T23:52:59.992Z,2.58
2023-03-12T23:55:31.038Z,2.59
2023-03-12T23:58:02.441Z,2.60
